Time;durP1;ratioP1;P1;durP2;ratioP2;P2;SDS_P1;SDS_P2;PMS_P1;PMS_P2;Temp;Humidity;BMP_temperature;BMP_pressure;BME280_temperature;BME280_humidity;BME280_pressure;Samples;Min_cycle;Max_cycle;Signal;HPM_P1;HPM_P2
2022/10/14 00:01:50;;;;;;;;;;;;;;;14.09;76.39;101003.69;5058305;28;19921;-83
2022/10/14 00:04:35;;;;;;;;;;;;;;;14.12;76.07;100996.75;5063392;28;19921;-83
2022/10/14 00:07:19;;;;;;;;;;;;;;;14.03;76.37;100993.28;5057560;28;19921;-84
2022/10/14 00:10:04;;;;;;;;;;;;;;;13.91;76.92;100996.75;5058017;28;19917;-84
2022/10/14 00:12:49;;;;;;;;;;;;;;;14.04;76.79;100994.88;5063965;28;19920;-83
2022/10/14 00:15:38;;;;;;;;;;;;;;;14.10;76.46;100996.31;5070402;28;19916;-83
2022/10/14 00:18:22;;;;;;;;;;;;;;;14.11;76.24;101001.44;5072546;28;19917;-85
2022/10/14 00:21:08;;;;;;;;;;;;;;;14.06;76.21;100998.91;5069832;28;20554;-84
2022/10/14 00:23:52;;;;;;;;;;;;;;;13.99;76.83;100993.16;5057582;28;19921;-83
2022/10/14 00:26:38;;;;;;;;;;;;;;;13.86;77.28;100988.75;5062491;28;19916;-83
2022/10/14 00:29:23;;;;;;;;;;;;;;;13.82;77.35;100987.78;5057120;28;19937;-83
2022/10/14 00:32:07;;;;;;;;;;;;;;;13.82;77.38;100981.50;5076737;28;20292;-83
2022/10/14 00:34:52;;;;;;;;;;;;;;;13.82;77.64;100984.22;5065103;28;19917;-83
2022/10/14 00:37:36;;;;;;;;;;;;;;;13.81;77.78;100986.19;5056920;28;19917;-83
2022/10/14 00:40:21;;;;;;;;;;;;;;;13.86;77.63;100982.47;5062774;28;20376;-83
2022/10/14 00:43:09;;;;;;;;;;;;;;;13.71;78.33;100981.09;5057579;28;19920;-83
2022/10/14 00:45:53;;;;;;;;;;;;;;;13.70;78.16;100985.75;5057000;28;19916;-83
2022/10/14 00:48:39;;;;;;;;;;;;;;;13.86;77.44;100983.28;5055873;28;19917;-83
2022/10/14 00:51:24;;;;;;;;;;;;;;;13.74;78.03;100968.69;5057133;28;19917;-82
2022/10/14 00:54:10;;;;;;;;;;;;;;;13.74;77.96;100963.22;5055715;28;20132;-84
2022/10/14 00:56:55;;;;;;;;;;;;;;;13.75;77.61;100962.91;5060770;28;19917;-82
2022/10/14 00:59:40;;;;;;;;;;;;;;;13.70;77.80;100957.63;5071612;28;20295;-84
2022/10/14 01:02:25;;;;;;;;;;;;;;;13.52;78.68;100964.28;5055325;28;19917;-83
2022/10/14 01:05:11;;;;;;;;;;;;;;;13.55;78.71;100956.25;5056405;28;19921;-82
2022/10/14 01:08:06;;;;;;;;;;;;;;;13.72;78.17;100952.63;5056255;28;19917;-83
2022/10/14 01:10:59;;;;;;;;;;;;;;;13.81;77.76;100955.31;5060675;28;19917;-83
2022/10/14 01:13:53;;;;;;;;;;;;;;;13.78;77.44;100961.44;5058243;28;19917;-82
2022/10/14 01:16:40;;;;;;;;;;;;;;;13.65;77.77;100950.41;5060986;28;19917;-83
2022/10/14 01:19:25;;;;;;;;;;;;;;;13.56;78.71;100944.19;5063645;28;19917;-82
2022/10/14 01:22:19;;;;;;;;;;;;;;;13.57;78.50;100940.31;5058469;28;19920;-83
2022/10/14 01:25:10;;;;;;;;;;;;;;;13.49;78.62;100932.97;5055798;28;19921;-83
2022/10/14 01:28:12;;;;;;;;;;;;;;;13.51;78.40;100949.06;5056926;28;19916;-83
2022/10/14 01:30:59;;;;;;;;;;;;;;;13.44;79.01;100946.03;5061502;28;19934;-82
2022/10/14 01:33:45;;;;;;;;;;;;;;;13.27;79.70;100939.50;5055701;28;20380;-83
2022/10/14 01:36:38;;;;;;;;;;;;;;;13.26;79.84;100937.09;5055370;28;19921;-83
2022/10/14 01:39:25;;;;;;;;;;;;;;;13.39;79.46;100930.63;5055128;28;19917;-83
2022/10/14 01:42:14;;;;;;;;;;;;;;;13.31;79.53;100939.63;5055462;28;19917;-82
2022/10/14 01:45:02;;;;;;;;;;;;;;;13.27;79.74;100938.69;5057995;28;19921;-82
2022/10/14 01:47:48;;;;;;;;;;;;;;;13.24;79.75;100942.91;5056637;28;19917;-83
2022/10/14 01:50:35;;;;;;;;;;;;;;;13.26;79.40;100932.44;5056656;28;19917;-83
2022/10/14 01:53:22;;;;;;;;;;;;;;;13.30;79.48;100937.25;5058512;28;20112;-83
2022/10/14 01:56:10;;;;;;;;;;;;;;;13.31;79.35;100931.44;5053693;28;20418;-82
2022/10/14 01:58:57;;;;;;;;;;;;;;;13.39;79.05;100930.63;5055123;28;19917;-83
2022/10/14 02:01:41;;;;;;;;;;;;;;;13.38;79.08;100928.22;5058711;28;19917;-83
2022/10/14 02:04:26;;;;;;;;;;;;;;;13.51;78.22;100916.28;5055689;28;19920;-83
2022/10/14 02:07:22;;;;;;;;;;;;;;;13.48;78.22;100914.97;5055458;28;19916;-83
2022/10/14 02:10:26;;;;;;;;;;;;;;;13.40;78.64;100915.84;5057758;28;19916;-83
2022/10/14 02:13:29;;;;;;;;;;;;;;;13.43;78.63;100915.16;5055357;28;20370;-83
2022/10/14 02:16:22;;;;;;;;;;;;;;;13.31;79.26;100909.59;5058039;28;19916;-83
2022/10/14 02:19:06;;;;;;;;;;;;;;;13.23;79.73;100916.72;5054928;28;19916;-83
2022/10/14 02:22:16;;;;;;;;;;;;;;;13.24;79.82;100914.78;5055280;28;19917;-82
2022/10/14 02:25:19;;;;;;;;;;;;;;;13.13;79.85;100919.00;5055130;28;19921;-83
2022/10/14 02:28:06;;;;;;;;;;;;;;;13.17;79.78;100909.03;5056208;28;19921;-82
2022/10/14 02:30:55;;;;;;;;;;;;;;;13.15;79.54;100905.84;5057419;28;19924;-82
2022/10/14 02:33:41;;;;;;;;;;;;;;;13.25;79.35;100905.47;5055020;28;19917;-82
2022/10/14 02:36:27;;;;;;;;;;;;;;;13.24;79.23;100906.59;5054989;28;19916;-83
2022/10/14 02:39:15;;;;;;;;;;;;;;;13.28;79.00;100899.34;5061525;28;19916;-83
2022/10/14 02:41:59;;;;;;;;;;;;;;;13.27;78.73;100895.81;5065755;28;19920;-83
2022/10/14 02:44:51;;;;;;;;;;;;;;;13.26;78.60;100894.19;5065180;28;19921;-83
2022/10/14 02:47:36;;;;;;;;;;;;;;;12.97;79.70;100898.78;5059157;28;19949;-83
2022/10/14 02:50:20;;;;;;;;;;;;;;;13.00;79.91;100898.16;5058457;28;19917;-82
2022/10/14 02:53:04;;;;;;;;;;;;;;;12.99;80.54;100894.63;5062720;28;19921;-83
2022/10/14 02:55:49;;;;;;;;;;;;;;;13.03;79.92;100901.03;5062066;28;19916;-83
2022/10/14 02:58:34;;;;;;;;;;;;;;;12.98;79.53;100903.13;5058879;28;19916;-82
2022/10/14 03:01:18;;;;;;;;;;;;;;;12.93;79.76;100904.09;5059030;28;19920;-83
2022/10/14 03:04:03;;;;;;;;;;;;;;;12.99;79.81;100902.00;5058837;28;19921;-83
2022/10/14 03:06:48;;;;;;;;;;;;;;;12.96;79.91;100910.81;5059510;28;19917;-83
2022/10/14 03:09:32;;;;;;;;;;;;;;;13.01;79.54;100907.91;5064559;28;20308;-83
2022/10/14 03:12:17;;;;;;;;;;;;;;;12.88;79.56;100915.19;5070638;28;19916;-82
2022/10/14 03:15:03;;;;;;;;;;;;;;;12.84;79.91;100920.53;5079026;28;20295;-83
2022/10/14 03:17:49;;;;;;;;;;;;;;;12.83;80.39;100918.09;5077735;28;19917;-82
2022/10/14 03:20:38;;;;;;;;;;;;;;;12.93;79.98;100904.09;5080617;28;19916;-83
2022/10/14 03:23:25;;;;;;;;;;;;;;;12.91;80.16;100900.88;5077721;28;19920;-82
2022/10/14 03:26:11;;;;;;;;;;;;;;;12.99;79.64;100904.72;5078076;28;19916;-83
2022/10/14 03:28:59;;;;;;;;;;;;;;;13.05;79.60;100895.25;5078036;28;19917;-82
2022/10/14 03:31:56;;;;;;;;;;;;;;;12.99;79.99;100899.28;5078508;28;19916;-83
2022/10/14 03:35:09;;;;;;;;;;;;;;;12.94;80.02;100904.91;5080262;28;19920;-82
2022/10/14 03:37:58;;;;;;;;;;;;;;;12.79;80.32;100911.69;5059013;28;19916;-82
2022/10/14 03:40:47;;;;;;;;;;;;;;;12.72;80.11;100905.94;5069475;28;20311;-82
2022/10/14 03:43:32;;;;;;;;;;;;;;;12.46;81.47;100903.25;5076016;28;20328;-83
2022/10/14 03:46:17;;;;;;;;;;;;;;;12.61;80.92;100893.75;5059709;28;20300;-83
2022/10/14 03:49:02;;;;;;;;;;;;;;;12.46;80.83;100891.53;5055849;28;20292;-84
2022/10/14 03:51:46;;;;;;;;;;;;;;;12.22;81.55;100903.75;5064246;28;19920;-83
2022/10/14 03:54:41;;;;;;;;;;;;;;;12.33;81.94;100896.84;5080583;28;19917;-83
2022/10/14 03:57:30;;;;;;;;;;;;;;;12.36;82.15;100893.47;5067414;28;19917;-84
2022/10/14 04:00:17;;;;;;;;;;;;;;;12.41;82.05;100896.03;5074396;28;20396;-83
2022/10/14 04:03:06;;;;;;;;;;;;;;;12.50;81.99;100892.47;5093866;28;19917;-83
2022/10/14 04:05:55;;;;;;;;;;;;;;;12.51;81.57;100899.53;5078950;28;19921;-87
2022/10/14 04:08:42;;;;;;;;;;;;;;;12.69;80.83;100895.69;5084900;28;19916;-84
2022/10/14 04:11:38;;;;;;;;;;;;;;;12.65;80.38;100890.03;5078121;28;20386;-83
2022/10/14 04:14:26;;;;;;;;;;;;;;;12.68;80.62;100889.41;5060555;28;19916;-84
2022/10/14 04:17:11;;;;;;;;;;;;;;;12.73;80.87;100894.69;5076389;28;19917;-84
2022/10/14 04:19:56;;;;;;;;;;;;;;;12.72;80.67;100895.00;5077665;28;20380;-83
2022/10/14 04:22:40;;;;;;;;;;;;;;;12.83;79.52;100899.81;5077079;28;19920;-83
2022/10/14 04:25:24;;;;;;;;;;;;;;;12.71;79.60;100905.13;5083571;28;19929;-84
2022/10/14 04:28:13;;;;;;;;;;;;;;;12.50;80.40;100897.94;5077209;28;19916;-83
2022/10/14 04:31:06;;;;;;;;;;;;;;;12.76;79.64;100891.31;5077555;28;19917;-82
2022/10/14 04:34:03;;;;;;;;;;;;;;;12.43;80.79;100890.25;5078420;28;19917;-82
2022/10/14 04:36:53;;;;;;;;;;;;;;;12.58;80.42;100889.75;5086549;23;19917;-79
2022/10/14 04:39:53;;;;;;;;;;;;;;;12.64;79.50;100893.13;5085032;28;19924;-80
2022/10/14 04:42:38;;;;;;;;;;;;;;;12.42;80.58;100899.56;5084220;28;19916;-79
2022/10/14 04:45:28;;;;;;;;;;;;;;;12.25;81.45;100900.38;5098414;28;20298;-80
2022/10/14 04:48:19;;;;;;;;;;;;;;;12.19;82.35;100898.94;5083038;28;19924;-80
2022/10/14 04:51:04;;;;;;;;;;;;;;;12.32;81.11;100897.16;5074402;28;19920;-79
2022/10/14 04:53:59;;;;;;;;;;;;;;;12.32;80.90;100897.16;5083898;28;19917;-79
2022/10/14 04:56:53;;;;;;;;;;;;;;;12.46;80.72;100888.81;5095580;28;19916;-79
2022/10/14 04:59:38;;;;;;;;;;;;;;;12.33;81.83;100898.78;5071732;28;20375;-78
2022/10/14 05:02:29;;;;;;;;;;;;;;;12.42;81.73;100896.84;5081145;28;19916;-79
2022/10/14 05:05:17;;;;;;;;;;;;;;;12.49;80.19;100894.44;5084840;28;19920;-79
2022/10/14 05:08:06;;;;;;;;;;;;;;;12.49;80.35;100893.63;5066922;28;19916;-78
2022/10/14 05:10:55;;;;;;;;;;;;;;;12.49;80.47;100902.63;5067947;28;19917;-77
2022/10/14 05:13:57;;;;;;;;;;;;;;;12.51;79.54;100900.34;5085027;28;19916;-78
2022/10/14 05:16:44;;;;;;;;;;;;;;;12.33;80.42;100902.31;5087673;28;19924;-77
2022/10/14 05:19:28;;;;;;;;;;;;;;;12.31;81.07;100898.28;5068302;28;19917;-78
2022/10/14 05:22:12;;;;;;;;;;;;;;;12.48;80.16;100897.47;5076590;28;19917;-81
2022/10/14 05:25:02;;;;;;;;;;;;;;;12.61;79.20;100897.28;5077053;28;19925;-80
2022/10/14 05:27:48;;;;;;;;;;;;;;;12.64;78.48;100895.84;5065989;28;19916;-80
2022/10/14 05:30:33;;;;;;;;;;;;;;;12.71;77.43;100893.41;5067330;28;19916;-80
2022/10/14 05:33:18;;;;;;;;;;;;;;;12.58;77.90;100888.94;5063758;28;19924;-77
2022/10/14 05:36:03;;;;;;;;;;;;;;;12.42;78.85;100896.84;5072094;28;20384;-79
2022/10/14 05:38:54;;;;;;;;;;;;;;;12.54;78.18;100894.25;5072472;28;19916;-79
2022/10/14 05:41:40;;;;;;;;;;;;;;;12.53;78.12;100900.84;5082058;28;19920;-77
2022/10/14 05:44:25;;;;;;;;;;;;;;;12.62;77.84;100885.25;5061298;28;19921;-77
2022/10/14 05:47:10;;;;;;;;;;;;;;;12.71;77.17;100896.94;5076790;28;19917;-78
2022/10/14 05:49:56;;;;;;;;;;;;;;;12.74;77.31;100885.38;5076138;28;19916;-76
2022/10/14 05:52:41;;;;;;;;;;;;;;;12.92;76.07;100885.31;5065786;28;19924;-77
2022/10/14 05:55:33;;;;;;;;;;;;;;;13.02;76.18;100887.69;5074181;28;20287;-76
2022/10/14 05:58:20;;;;;;;;;;;;;;;13.16;75.83;100889.09;5073208;28;19920;-78
2022/10/14 06:01:06;;;;;;;;;;;;;;;13.44;75.06;100888.66;5067420;28;19920;-76
2022/10/14 06:03:51;;;;;;;;;;;;;;;13.89;72.80;100886.09;5066161;28;19920;-77
2022/10/14 06:06:36;;;;;;;;;;;;;;;14.17;71.34;100889.91;5061138;28;19921;-77
2022/10/14 06:09:20;;;;;;;;;;;;;;;14.39;70.21;100886.84;5066852;28;19916;-76
2022/10/14 06:12:05;;;;;;;;;;;;;;;15.07;68.22;100900.13;5067437;28;19920;-77
2022/10/14 06:14:50;;;;;;;;;;;;;;;15.25;67.30;100901.50;5065309;28;19916;-78
2022/10/14 06:17:34;;;;;;;;;;;;;;;14.82;68.83;100899.28;5070323;28;19924;-77
2022/10/14 06:20:19;;;;;;;;;;;;;;;14.83;69.37;100907.16;5068693;28;19916;-76
2022/10/14 06:23:04;;;;;;;;;;;;;;;14.83;69.20;100907.16;5065329;28;19925;-77
2022/10/14 06:25:48;;;;;;;;;;;;;;;14.91;69.19;100897.25;5064595;28;19920;-79
2022/10/14 06:28:33;;;;;;;;;;;;;;;15.08;68.78;100899.78;5065877;28;19917;-80
2022/10/14 06:31:17;;;;;;;;;;;;;;;15.13;68.39;100893.28;5074027;28;19916;-80
2022/10/14 06:34:03;;;;;;;;;;;;;;;15.31;67.70;100906.41;5075520;28;19920;-81
2022/10/14 06:36:48;;;;;;;;;;;;;;;15.43;67.50;100902.88;5079015;28;19924;-80
2022/10/14 06:39:33;;;;;;;;;;;;;;;15.34;68.07;100902.97;5071831;28;19916;-79
2022/10/14 06:42:18;;;;;;;;;;;;;;;15.44;67.75;100906.44;5080660;28;19916;-79
2022/10/14 06:45:04;;;;;;;;;;;;;;;15.60;67.82;100907.34;5077044;28;19921;-78
2022/10/14 06:47:49;;;;;;;;;;;;;;;15.93;66.91;100908.00;5084442;28;19916;-77
2022/10/14 06:50:35;;;;;;;;;;;;;;;15.80;67.79;100917.38;5069539;28;19916;-77
2022/10/14 06:53:20;;;;;;;;;;;;;;;15.96;67.61;100917.47;5073698;28;19921;-79
2022/10/14 06:56:05;;;;;;;;;;;;;;;16.30;66.32;100916.94;5076935;28;19921;-78
2022/10/14 06:58:53;;;;;;;;;;;;;;;16.52;65.58;100929.28;5076384;28;20295;-78
2022/10/14 07:01:38;;;;;;;;;;;;;;;16.74;65.53;100928.75;5076232;28;19916;-78
2022/10/14 07:04:22;;;;;;;;;;;;;;;17.01;64.87;100927.13;5068561;28;19920;-78
2022/10/14 07:07:07;;;;;;;;;;;;;;;17.14;65.28;100925.88;5086690;28;19915;-78
2022/10/14 07:09:52;;;;;;;;;;;;;;;17.37;64.94;100924.09;5064767;28;19921;-77
2022/10/14 07:12:37;;;;;;;;;;;;;;;17.36;64.86;100927.22;5085652;28;19916;-79
2022/10/14 07:15:22;;;;;;;;;;;;;;;17.57;63.48;100916.75;5096901;28;19923;-78
2022/10/14 07:18:06;;;;;;;;;;;;;;;17.87;62.46;100915.09;5076549;28;20334;-77
2022/10/14 07:20:51;;;;;;;;;;;;;;;18.01;62.63;100916.56;5068049;28;19917;-78
2022/10/14 07:23:35;;;;;;;;;;;;;;;18.18;62.33;100919.72;5069974;28;19917;-78
2022/10/14 07:26:20;;;;;;;;;;;;;;;18.48;60.97;100922.69;5068529;28;20384;-76
2022/10/14 07:29:05;;;;;;;;;;;;;;;18.71;60.32;100923.53;5070213;28;19921;-78
2022/10/14 07:31:49;;;;;;;;;;;;;;;18.76;60.33;100926.00;5063299;28;19916;-78
2022/10/14 07:34:34;;;;;;;;;;;;;;;18.79;59.71;100930.75;5059720;28;19917;-77
2022/10/14 07:37:18;;;;;;;;;;;;;;;19.11;58.59;100927.78;5056186;28;19921;-79
2022/10/14 07:40:03;;;;;;;;;;;;;;;19.38;58.03;100932.19;5075917;28;19916;-80
2022/10/14 07:42:47;;;;;;;;;;;;;;;19.01;59.95;100928.41;5075472;28;19916;-80
2022/10/14 07:45:35;;;;;;;;;;;;;;;19.53;58.26;100928.53;5083067;28;19920;-79
2022/10/14 07:48:19;;;;;;;;;;;;;;;19.67;55.96;100933.47;5084172;28;20303;-78
2022/10/14 07:51:05;;;;;;;;;;;;;;;19.72;56.93;100929.59;5079863;28;19917;-79
2022/10/14 07:53:51;;;;;;;;;;;;;;;20.29;55.51;100936.69;5087457;28;20387;-78
2022/10/14 07:56:37;;;;;;;;;;;;;;;20.47;54.59;100938.53;5078953;28;19916;-77
2022/10/14 07:59:21;;;;;;;;;;;;;;;20.90;53.49;100945.34;5080658;28;19920;-77
2022/10/14 08:02:06;;;;;;;;;;;;;;;20.91;53.13;100951.66;5085280;28;20387;-78
2022/10/14 08:04:51;;;;;;;;;;;;;;;21.41;52.32;100941.88;5073993;28;19921;-77
2022/10/14 08:07:36;;;;;;;;;;;;;;;20.07;55.60;100952.19;5092848;28;19916;-78
2022/10/14 08:10:20;;;;;;;;;;;;;;;20.02;55.51;100950.53;5078311;28;19916;-81
2022/10/14 08:13:05;;;;;;;;;;;;;;;19.21;58.38;100949.22;5096469;28;20395;-79
2022/10/14 08:15:50;;;;;;;;;;;;;;;19.96;57.08;100962.31;5096314;28;19916;-78
2022/10/14 08:18:34;;;;;;;;;;;;;;;19.27;57.82;100958.81;5095679;28;20302;-78
2022/10/14 08:21:20;;;;;;;;;;;;;;;19.92;55.57;100962.22;5096277;28;20299;-77
2022/10/14 08:24:05;;;;;;;;;;;;;;;20.77;54.14;100968.09;5095790;28;20306;-78
2022/10/14 08:26:50;;;;;;;;;;;;;;;20.90;53.98;100974.94;5095537;28;19916;-78
2022/10/14 08:29:35;;;;;;;;;;;;;;;20.03;56.04;100965.94;5085730;28;19916;-77
2022/10/14 08:32:19;;;;;;;;;;;;;;;20.15;55.71;100966.91;5077841;28;20295;-77
2022/10/14 08:35:04;;;;;;;;;;;;;;;19.70;56.90;100954.03;5094754;28;19916;-78
2022/10/14 08:37:58;;;;;;;;;;;;;;;19.78;57.00;100962.03;5097502;28;19916;-77
2022/10/14 08:40:52;;;;;;;;;;;;;;;19.73;56.28;100962.34;5093998;28;19916;-77
2022/10/14 08:43:40;;;;;;;;;;;;;;;20.33;55.13;100959.66;5093885;28;19917;-77
2022/10/14 08:46:49;;;;;;;;;;;;;;;19.76;55.80;100969.09;5095719;28;19920;-77
2022/10/14 08:49:57;;;;;;;;;;;;;;;19.18;58.43;100963.75;5069051;28;19916;-76
2022/10/14 08:52:55;;;;;;;;;;;;;;;19.00;59.15;100966.19;5068930;28;19920;-78
2022/10/14 08:55:50;;;;;;;;;;;;;;;19.82;56.86;100971.16;5067369;28;20335;-79
2022/10/14 08:58:37;;;;;;;;;;;;;;;19.98;56.09;100965.47;5071543;28;19916;-79
2022/10/14 09:01:22;;;;;;;;;;;;;;;20.57;54.81;100969.44;5056891;28;19921;-78
2022/10/14 09:04:11;;;;;;;;;;;;;;;20.54;55.09;100975.72;5073126;28;19917;-79
2022/10/14 09:06:56;;;;;;;;;;;;;;;19.40;58.19;100967.69;5083025;28;19917;-79
2022/10/14 09:09:43;;;;;;;;;;;;;;;20.18;56.23;100972.47;5066859;28;19916;-78
2022/10/14 09:12:29;;;;;;;;;;;;;;;20.89;54.49;100976.91;5060840;28;20296;-80
2022/10/14 09:15:17;;;;;;;;;;;;;;;20.96;54.04;100975.41;5057943;28;19924;-78
2022/10/14 09:18:10;;;;;;;;;;;;;;;20.80;54.69;100972.88;5075827;28;19920;-79
2022/10/14 09:20:55;;;;;;;;;;;;;;;20.71;54.06;100975.94;5069955;28;19917;-79
2022/10/14 09:23:39;;;;;;;;;;;;;;;20.70;55.16;100973.53;5076540;28;20379;-79
2022/10/14 09:26:28;;;;;;;;;;;;;;;22.01;51.17;100970.00;5070085;28;19920;-79
2022/10/14 09:29:15;;;;;;;;;;;;;;;22.35;51.17;100969.81;5079975;28;19916;-79
2022/10/14 09:32:02;;;;;;;;;;;;;;;22.18;51.44;100972.09;5073537;28;20384;-78
2022/10/14 09:34:48;;;;;;;;;;;;;;;21.06;53.62;100960.88;5073242;28;19916;-78
2022/10/14 09:37:35;;;;;;;;;;;;;;;22.12;51.93;100964.53;5080128;28;20331;-81
2022/10/14 09:40:31;;;;;;;;;;;;;;;22.63;50.48;100952.50;5060242;28;19916;-81
2022/10/14 09:43:17;;;;;;;;;;;;;;;22.82;48.77;100960.50;5074867;28;19924;-80
2022/10/14 09:46:03;;;;;;;;;;;;;;;22.72;49.05;100962.06;5068459;28;19924;-81
2022/10/14 09:48:49;;;;;;;;;;;;;;;23.31;47.70;100968.91;5061087;28;19917;-80
2022/10/14 09:51:34;;;;;;;;;;;;;;;23.29;47.25;100962.16;5061156;28;19920;-77
2022/10/14 09:54:25;;;;;;;;;;;;;;;22.51;47.28;100959.16;5080431;28;19917;-77
2022/10/14 09:57:17;;;;;;;;;;;;;;;22.69;48.20;100959.25;5078887;28;19916;-79
2022/10/14 10:00:03;;;;;;;;;;;;;;;21.61;50.09;100956.25;5076091;28;19924;-79
2022/10/14 10:02:51;;;;;;;;;;;;;;;22.28;48.69;100953.16;5082543;28;19916;-79
2022/10/14 10:05:36;;;;;;;;;;;;;;;22.03;49.26;100945.50;5056594;28;19921;-79
2022/10/14 10:08:21;;;;;;;;;;;;;;;22.50;48.09;100946.53;5055990;28;19920;-75
2022/10/14 10:11:12;;;;;;;;;;;;;;;21.41;51.92;100952.94;5055690;28;19917;-77
2022/10/14 10:13:57;;;;;;;;;;;;;;;21.80;51.60;100942.16;5054176;28;19917;-77
2022/10/14 10:16:41;;;;;;;;;;;;;;;22.16;50.46;100937.66;5060364;28;20315;-76
2022/10/14 10:19:31;;;;;;;;;;;;;;;22.12;50.63;100942.38;5059115;28;19916;-77
2022/10/14 10:22:19;;;;;;;;;;;;;;;22.88;48.43;100937.53;5054489;28;19917;-77
2022/10/14 10:25:25;;;;;;;;;;;;;;;22.50;50.15;100935.44;5063020;28;20380;-76
2022/10/14 10:28:18;;;;;;;;;;;;;;;22.32;50.46;100929.81;5073622;28;19916;-75
2022/10/14 10:31:24;;;;;;;;;;;;;;;22.05;50.94;100932.03;5073351;28;19916;-77
2022/10/14 10:34:09;;;;;;;;;;;;;;;22.27;51.28;100921.06;5075855;28;19921;-78
2022/10/14 10:37:17;;;;;;;;;;;;;;;22.12;50.91;100923.00;5073965;28;20391;-78
2022/10/14 10:40:09;;;;;;;;;;;;;;;21.33;53.37;100924.41;5069230;28;19921;-77
2022/10/14 10:43:06;;;;;;;;;;;;;;;22.88;49.50;100928.41;5063423;28;20311;-76
2022/10/14 10:45:53;;;;;;;;;;;;;;;21.99;51.41;100919.75;5058542;28;19933;-77
2022/10/14 10:48:43;;;;;;;;;;;;;;;22.55;49.92;100912.88;5063726;28;19917;-77
2022/10/14 10:51:36;;;;;;;;;;;;;;;23.88;46.34;100925.25;5063636;28;19916;-78
2022/10/14 10:54:24;;;;;;;;;;;;;;;24.04;46.08;100912.91;5064537;28;19917;-76
2022/10/14 10:57:17;;;;;;;;;;;;;;;22.43;50.67;100905.72;5066615;28;20308;-76
2022/10/14 11:00:09;;;;;;;;;;;;;;;23.62;48.04;100909.03;5067128;28;19920;-76
2022/10/14 11:02:54;;;;;;;;;;;;;;;22.63;50.21;100900.63;5064434;28;19916;-78
2022/10/14 11:05:47;;;;;;;;;;;;;;;23.67;47.45;100891.97;5068849;28;19921;-83
2022/10/14 11:14:53;;;;;;;;;;;;;;;23.75;47.24;100876.09;5073527;28;19943;-80
2022/10/14 11:18:00;;;;;;;;;;;;;;;23.01;48.98;100871.38;5077485;28;19917;-83
2022/10/14 11:20:53;;;;;;;;;;;;;;;23.19;48.23;100872.19;5072864;28;19917;-80
2022/10/14 11:23:46;;;;;;;;;;;;;;;23.96;46.53;100875.22;5081027;28;19916;-81
2022/10/14 11:26:57;;;;;;;;;;;;;;;24.28;45.79;100864.78;5071658;28;20315;-78
2022/10/14 11:29:44;;;;;;;;;;;;;;;23.21;48.11;100863.47;5074938;28;20375;-80
2022/10/14 11:32:38;;;;;;;;;;;;;;;23.33;48.22;100858.28;5072275;28;19916;-83
2022/10/14 11:35:50;;;;;;;;;;;;;;;24.45;45.31;100858.34;5072983;28;20382;-82
2022/10/14 11:38:50;;;;;;;;;;;;;;;23.13;48.26;100856.31;5078974;28;19916;-81
2022/10/14 11:42:00;;;;;;;;;;;;;;;23.44;47.36;100847.16;5076430;28;19916;-81
2022/10/14 11:44:44;;;;;;;;;;;;;;;23.29;48.02;100848.38;5058930;28;19917;-81
2022/10/14 11:47:32;;;;;;;;;;;;;;;23.38;47.77;100857.09;5060755;28;19917;-79
2022/10/14 11:50:26;;;;;;;;;;;;;;;22.83;49.01;100849.19;5068693;28;19925;-85
2022/10/14 11:53:23;;;;;;;;;;;;;;;22.66;49.78;100840.78;5060148;28;20288;-82
2022/10/14 11:56:28;;;;;;;;;;;;;;;23.18;48.65;100847.59;5070874;28;19924;-81
2022/10/14 11:59:15;;;;;;;;;;;;;;;23.77;47.44;100841.16;5055762;28;19920;-81
2022/10/14 12:02:02;;;;;;;;;;;;;;;24.09;46.59;100841.03;5057550;28;19917;-80
2022/10/14 12:05:01;;;;;;;;;;;;;;;23.34;48.28;100839.66;5064517;28;19917;-81
2022/10/14 12:07:57;;;;;;;;;;;;;;;24.58;45.00;100830.88;5067107;28;20315;-80
2022/10/14 12:10:46;;;;;;;;;;;;;;;24.61;44.72;100824.47;5059717;28;19916;-82
2022/10/14 12:13:37;;;;;;;;;;;;;;;25.97;41.85;100831.16;5065921;28;19925;-82
2022/10/14 12:16:23;;;;;;;;;;;;;;;25.12;43.20;100834.84;5068857;28;19917;-81
2022/10/14 12:19:08;;;;;;;;;;;;;;;25.30;41.59;100829.09;5089343;22;19925;-82
2022/10/14 12:22:00;;;;;;;;;;;;;;;25.28;41.17;100820.38;5085797;28;19920;-82
2022/10/14 12:24:52;;;;;;;;;;;;;;;25.52;40.45;100814.53;5081111;28;19916;-83
2022/10/14 12:27:37;;;;;;;;;;;;;;;24.57;41.96;100816.16;5097049;28;19916;-83
2022/10/14 12:30:33;;;;;;;;;;;;;;;24.71;42.21;100821.63;5094448;28;19920;-82
2022/10/14 12:33:17;;;;;;;;;;;;;;;25.00;41.09;100815.84;5094846;28;20071;-83
2022/10/14 12:36:02;;;;;;;;;;;;;;;26.29;38.22;100808.47;5097570;28;19920;-82
2022/10/14 12:39:06;;;;;;;;;;;;;;;28.56;34.09;100819.00;5095026;28;20311;-82
2022/10/14 12:41:54;;;;;;;;;;;;;;;28.09;34.44;100818.41;5094523;28;19916;-83
2022/10/14 12:44:55;;;;;;;;;;;;;;;29.38;32.13;100811.38;5094241;28;19920;-82
2022/10/14 12:47:39;;;;;;;;;;;;;;;28.83;33.56;100805.56;5094056;28;19924;-83
2022/10/14 12:50:27;;;;;;;;;;;;;;;31.86;28.10;100809.81;5093986;28;19924;-82
2022/10/14 12:53:16;;;;;;;;;;;;;;;33.81;24.88;100808.16;5095719;28;19916;-83
2022/10/14 12:56:01;;;;;;;;;;;;;;;33.13;26.52;100803.13;5098879;28;19916;-83
2022/10/14 12:59:00;;;;;;;;;;;;;;;33.86;25.42;100807.53;5101648;28;19916;-86
2022/10/14 13:01:44;;;;;;;;;;;;;;;32.04;27.43;100795.88;5098365;28;19916;-85
2022/10/14 13:04:29;;;;;;;;;;;;;;;28.88;32.20;100788.25;5099193;28;19920;-85
2022/10/14 13:07:17;;;;;;;;;;;;;;;27.62;34.90;100789.88;5085003;28;19920;-85
2022/10/14 13:10:31;;;;;;;;;;;;;;;25.79;38.17;100784.03;5084846;28;19928;-85
2022/10/14 13:13:34;;;;;;;;;;;;;;;25.27;38.58;100777.03;5098024;28;19916;-84
2022/10/14 13:16:22;;;;;;;;;;;;;;;26.31;36.89;100778.16;5097377;28;19916;-85
2022/10/14 13:19:24;;;;;;;;;;;;;;;25.29;38.75;100781.00;5099719;28;19917;-84
2022/10/14 13:22:24;;;;;;;;;;;;;;;24.53;40.65;100772.91;5097023;28;20398;-85
2022/10/14 13:25:13;;;;;;;;;;;;;;;24.14;41.54;100775.91;5096688;28;19924;-85
2022/10/14 13:28:27;;;;;;;;;;;;;;;24.08;41.93;100777.50;5099456;28;19916;-84
2022/10/14 13:31:20;;;;;;;;;;;;;;;25.25;39.78;100777.44;5096265;28;19920;-85
2022/10/14 13:34:24;;;;;;;;;;;;;;;24.73;41.15;100778.72;5098745;28;19920;-85
2022/10/14 13:37:28;;;;;;;;;;;;;;;24.48;41.67;100774.09;5096087;28;19916;-85
2022/10/14 13:40:19;;;;;;;;;;;;;;;25.39;39.49;100773.72;5095902;28;20291;-85
2022/10/14 13:43:15;;;;;;;;;;;;;;;27.62;35.81;100759.16;5095791;28;19916;-84
2022/10/14 13:46:05;;;;;;;;;;;;;;;26.09;38.43;100754.56;5094506;28;19920;-85
2022/10/14 13:48:51;;;;;;;;;;;;;;;26.91;37.00;100757.69;5097522;28;19916;-85
2022/10/14 13:51:54;;;;;;;;;;;;;;;27.60;35.28;100762.34;5095031;28;19916;-84
2022/10/14 13:54:38;;;;;;;;;;;;;;;28.31;34.17;100757.22;5094999;28;19916;-85
2022/10/14 13:57:23;;;;;;;;;;;;;;;27.74;34.77;100749.28;5097353;28;19916;-84
2022/10/14 14:00:24;;;;;;;;;;;;;;;25.90;38.78;100747.66;5077681;28;19916;-84
2022/10/14 14:03:15;;;;;;;;;;;;;;;25.04;41.40;100750.59;5063589;28;19917;-86
2022/10/14 14:06:00;;;;;;;;;;;;;;;24.45;42.96;100752.69;5068461;28;19921;-84
2022/10/14 14:08:49;;;;;;;;;;;;;;;23.69;45.00;100741.59;5055027;28;19917;-85
2022/10/14 14:11:36;;;;;;;;;;;;;;;24.01;44.43;100747.81;5073497;28;19917;-84
2022/10/14 14:14:27;;;;;;;;;;;;;;;23.63;44.96;100740.44;5069149;28;19917;-84
2022/10/14 14:17:13;;;;;;;;;;;;;;;23.67;45.02;100736.44;5064336;28;19917;-84
2022/10/14 14:19:58;;;;;;;;;;;;;;;23.35;46.30;100735.78;5073183;28;20307;-84
2022/10/14 14:22:43;;;;;;;;;;;;;;;22.99;46.73;100730.31;5068715;28;19917;-84
2022/10/14 14:25:28;;;;;;;;;;;;;;;22.73;46.88;100732.72;5072439;28;19920;-83
2022/10/14 14:28:14;;;;;;;;;;;;;;;22.56;47.56;100728.72;5064745;28;19917;-82
2022/10/14 14:30:59;;;;;;;;;;;;;;;23.02;46.34;100723.97;5069942;28;19916;-83
2022/10/14 14:33:43;;;;;;;;;;;;;;;22.85;47.32;100724.00;5074501;28;19916;-85